sensor_id;sensor_type;location;lat;lon;timestamp;P1;durP1;ratioP1;P2;durP2;ratioP2
69280;SDS011;56392;51.082;17.080;2024-01-15T00:01:16;15.07;;;5.10;;
69280;SDS011;56392;51.082;17.080;2024-01-15T00:06:40;17.13;;;5.03;;
69280;SDS011;56392;51.082;17.080;2024-01-15T00:12:05;12.27;;;4.10;;
69280;SDS011;56392;51.082;17.080;2024-01-15T00:17:29;20.10;;;6.10;;
69280;SDS011;56392;51.082;17.080;2024-01-15T00:22:53;15.23;;;5.77;;
69280;SDS011;56392;51.082;17.080;2024-01-15T00:28:18;16.13;;;5.90;;
69280;SDS011;56392;51.082;17.080;2024-01-15T00:33:42;14.18;;;5.28;;
69280;SDS011;56392;51.082;17.080;2024-01-15T00:39:05;15.60;;;5.53;;
69280;SDS011;56392;51.082;17.080;2024-01-15T00:44:31;14.30;;;5.18;;
69280;SDS011;56392;51.082;17.080;2024-01-15T00:49:56;14.43;;;6.00;;
69280;SDS011;56392;51.082;17.080;2024-01-15T00:55:19;11.43;;;4.67;;
69280;SDS011;56392;51.082;17.080;2024-01-15T01:00:44;11.32;;;4.45;;
69280;SDS011;56392;51.082;17.080;2024-01-15T01:06:08;13.02;;;4.90;;
69280;SDS011;56392;51.082;17.080;2024-01-15T01:11:31;12.00;;;4.67;;
69280;SDS011;56392;51.082;17.080;2024-01-15T01:16:56;12.30;;;4.53;;
69280;SDS011;56392;51.082;17.080;2024-01-15T01:22:19;12.57;;;4.50;;
69280;SDS011;56392;51.082;17.080;2024-01-15T01:27:42;14.03;;;4.80;;
69280;SDS011;56392;51.082;17.080;2024-01-15T01:33:07;11.40;;;4.35;;
69280;SDS011;56392;51.082;17.080;2024-01-15T01:38:30;12.60;;;4.77;;
69280;SDS011;56392;51.082;17.080;2024-01-15T01:43:53;13.67;;;5.10;;
69280;SDS011;56392;51.082;17.080;2024-01-15T01:49:18;12.07;;;4.60;;
69280;SDS011;56392;51.082;17.080;2024-01-15T01:54:41;13.43;;;4.77;;
69280;SDS011;56392;51.082;17.080;2024-01-15T02:00:05;13.90;;;4.90;;
69280;SDS011;56392;51.082;17.080;2024-01-15T02:05:31;11.80;;;4.30;;
69280;SDS011;56392;51.082;17.080;2024-01-15T02:10:55;13.77;;;4.70;;
69280;SDS011;56392;51.082;17.080;2024-01-15T02:16:18;13.77;;;4.80;;
69280;SDS011;56392;51.082;17.080;2024-01-15T02:21:43;13.82;;;5.53;;
69280;SDS011;56392;51.082;17.080;2024-01-15T02:27:08;13.77;;;5.63;;
69280;SDS011;56392;51.082;17.080;2024-01-15T02:32:31;12.70;;;5.30;;
69280;SDS011;56392;51.082;17.080;2024-01-15T02:37:54;14.30;;;5.38;;
69280;SDS011;56392;51.082;17.080;2024-01-15T02:43:19;14.00;;;4.87;;
69280;SDS011;56392;51.082;17.080;2024-01-15T02:48:42;12.98;;;4.75;;
69280;SDS011;56392;51.082;17.080;2024-01-15T02:54:05;14.82;;;5.25;;
69280;SDS011;56392;51.082;17.080;2024-01-15T02:59:30;12.27;;;4.57;;
69280;SDS011;56392;51.082;17.080;2024-01-15T03:04:53;12.70;;;4.78;;
69280;SDS011;56392;51.082;17.080;2024-01-15T03:10:16;12.23;;;4.82;;
69280;SDS011;56392;51.082;17.080;2024-01-15T03:15:42;12.93;;;4.60;;
69280;SDS011;56392;51.082;17.080;2024-01-15T03:21:05;11.63;;;4.63;;
69280;SDS011;56392;51.082;17.080;2024-01-15T03:26:28;12.00;;;3.93;;
69280;SDS011;56392;51.082;17.080;2024-01-15T03:31:53;10.13;;;3.73;;
69280;SDS011;56392;51.082;17.080;2024-01-15T03:37:16;10.48;;;3.80;;
69280;SDS011;56392;51.082;17.080;2024-01-15T03:42:39;9.67;;;3.47;;
69280;SDS011;56392;51.082;17.080;2024-01-15T03:48:04;10.20;;;3.93;;
69280;SDS011;56392;51.082;17.080;2024-01-15T03:53:28;11.35;;;3.63;;
69280;SDS011;56392;51.082;17.080;2024-01-15T03:58:52;9.97;;;3.70;;
69280;SDS011;56392;51.082;17.080;2024-01-15T04:04:16;11.87;;;4.30;;
69280;SDS011;56392;51.082;17.080;2024-01-15T04:09:40;11.23;;;4.30;;
69280;SDS011;56392;51.082;17.080;2024-01-15T04:15:03;9.97;;;3.60;;
69280;SDS011;56392;51.082;17.080;2024-01-15T04:20:28;8.43;;;3.07;;
69280;SDS011;56392;51.082;17.080;2024-01-15T04:25:52;9.65;;;3.17;;
69280;SDS011;56392;51.082;17.080;2024-01-15T04:31:22;11.27;;;3.90;;
69280;SDS011;56392;51.082;17.080;2024-01-15T04:36:48;11.07;;;4.07;;
69280;SDS011;56392;51.082;17.080;2024-01-15T04:42:12;11.07;;;4.10;;
69280;SDS011;56392;51.082;17.080;2024-01-15T04:47:35;12.10;;;4.43;;
69280;SDS011;56392;51.082;17.080;2024-01-15T04:53:01;11.00;;;4.10;;
69280;SDS011;56392;51.082;17.080;2024-01-15T04:58:24;12.55;;;4.25;;
69280;SDS011;56392;51.082;17.080;2024-01-15T05:03:49;13.43;;;4.50;;
69280;SDS011;56392;51.082;17.080;2024-01-15T05:09:13;12.40;;;3.60;;
69280;SDS011;56392;51.082;17.080;2024-01-15T05:14:37;11.07;;;4.07;;
69280;SDS011;56392;51.082;17.080;2024-01-15T05:20:00;12.37;;;4.17;;
69280;SDS011;56392;51.082;17.080;2024-01-15T05:25:26;10.67;;;4.07;;
69280;SDS011;56392;51.082;17.080;2024-01-15T05:30:49;10.98;;;3.38;;
69280;SDS011;56392;51.082;17.080;2024-01-15T05:36:14;10.90;;;3.20;;
69280;SDS011;56392;51.082;17.080;2024-01-15T05:41:39;9.10;;;3.50;;
69280;SDS011;56392;51.082;17.080;2024-01-15T05:47:03;9.30;;;2.95;;
69280;SDS011;56392;51.082;17.080;2024-01-15T05:52:26;9.77;;;3.57;;
69280;SDS011;56392;51.082;17.080;2024-01-15T05:57:54;9.03;;;3.57;;
69280;SDS011;56392;51.082;17.080;2024-01-15T06:03:17;11.32;;;3.47;;
69280;SDS011;56392;51.082;17.080;2024-01-15T06:08:40;8.77;;;3.07;;
69280;SDS011;56392;51.082;17.080;2024-01-15T06:14:05;8.50;;;2.73;;
69280;SDS011;56392;51.082;17.080;2024-01-15T06:19:30;10.07;;;3.35;;
69280;SDS011;56392;51.082;17.080;2024-01-15T06:24:53;9.53;;;3.63;;
69280;SDS011;56392;51.082;17.080;2024-01-15T06:30:18;14.13;;;5.07;;
69280;SDS011;56392;51.082;17.080;2024-01-15T06:35:43;9.02;;;3.33;;
69280;SDS011;56392;51.082;17.080;2024-01-15T06:41:07;13.30;;;4.53;;
69280;SDS011;56392;51.082;17.080;2024-01-15T06:46:34;11.10;;;3.80;;
69280;SDS011;56392;51.082;17.080;2024-01-15T06:51:58;9.90;;;3.30;;
69280;SDS011;56392;51.082;17.080;2024-01-15T06:57:22;11.83;;;3.90;;
69280;SDS011;56392;51.082;17.080;2024-01-15T07:02:47;11.83;;;3.57;;
69280;SDS011;56392;51.082;17.080;2024-01-15T07:08:11;11.05;;;4.07;;
69280;SDS011;56392;51.082;17.080;2024-01-15T07:13:36;10.97;;;3.63;;
69280;SDS011;56392;51.082;17.080;2024-01-15T07:19:01;8.70;;;2.60;;
69280;SDS011;56392;51.082;17.080;2024-01-15T07:24:25;13.02;;;4.15;;
69280;SDS011;56392;51.082;17.080;2024-01-15T07:29:49;11.20;;;3.97;;
69280;SDS011;56392;51.082;17.080;2024-01-15T07:35:15;12.50;;;3.95;;
69280;SDS011;56392;51.082;17.080;2024-01-15T07:40:39;13.82;;;4.55;;
69280;SDS011;56392;51.082;17.080;2024-01-15T07:46:04;13.00;;;3.80;;
69280;SDS011;56392;51.082;17.080;2024-01-15T07:51:29;10.82;;;3.70;;
69280;SDS011;56392;51.082;17.080;2024-01-15T07:56:53;9.60;;;2.93;;
69280;SDS011;56392;51.082;17.080;2024-01-15T08:02:17;11.33;;;3.27;;
69280;SDS011;56392;51.082;17.080;2024-01-15T08:07:42;10.77;;;2.97;;
69280;SDS011;56392;51.082;17.080;2024-01-15T08:13:05;10.83;;;2.93;;
69280;SDS011;56392;51.082;17.080;2024-01-15T08:18:30;8.07;;;2.90;;
69280;SDS011;56392;51.082;17.080;2024-01-15T08:23:55;10.95;;;3.20;;
69280;SDS011;56392;51.082;17.080;2024-01-15T08:29:19;11.47;;;2.97;;
69280;SDS011;56392;51.082;17.080;2024-01-15T08:34:43;11.30;;;2.70;;
69280;SDS011;56392;51.082;17.080;2024-01-15T08:40:10;11.43;;;2.95;;
69280;SDS011;56392;51.082;17.080;2024-01-15T08:45:37;12.17;;;2.83;;
69280;SDS011;56392;51.082;17.080;2024-01-15T08:51:00;8.23;;;2.17;;
69280;SDS011;56392;51.082;17.080;2024-01-15T08:56:25;8.93;;;2.10;;
69280;SDS011;56392;51.082;17.080;2024-01-15T09:01:50;10.23;;;2.87;;
69280;SDS011;56392;51.082;17.080;2024-01-15T09:07:14;9.73;;;2.63;;
69280;SDS011;56392;51.082;17.080;2024-01-15T09:12:42;7.93;;;2.03;;
69280;SDS011;56392;51.082;17.080;2024-01-15T09:18:06;7.15;;;1.73;;
69280;SDS011;56392;51.082;17.080;2024-01-15T09:23:29;7.67;;;1.80;;
69280;SDS011;56392;51.082;17.080;2024-01-15T09:28:57;10.10;;;2.05;;
69280;SDS011;56392;51.082;17.080;2024-01-15T09:34:22;8.57;;;1.57;;
69280;SDS011;56392;51.082;17.080;2024-01-15T09:39:45;7.20;;;2.00;;
69280;SDS011;56392;51.082;17.080;2024-01-15T09:45:11;9.13;;;2.03;;
69280;SDS011;56392;51.082;17.080;2024-01-15T09:50:35;8.77;;;1.83;;
69280;SDS011;56392;51.082;17.080;2024-01-15T09:56:00;9.70;;;2.80;;
69280;SDS011;56392;51.082;17.080;2024-01-15T10:01:26;7.60;;;1.85;;
69280;SDS011;56392;51.082;17.080;2024-01-15T10:06:50;11.32;;;2.00;;
69280;SDS011;56392;51.082;17.080;2024-01-15T10:12:15;12.07;;;1.97;;
69280;SDS011;56392;51.082;17.080;2024-01-15T10:17:41;8.98;;;1.90;;
69280;SDS011;56392;51.082;17.080;2024-01-15T10:23:04;10.70;;;1.80;;
69280;SDS011;56392;51.082;17.080;2024-01-15T10:28:31;7.97;;;1.80;;
69280;SDS011;56392;51.082;17.080;2024-01-15T10:33:55;13.52;;;2.20;;
69280;SDS011;56392;51.082;17.080;2024-01-15T10:39:33;7.20;;;1.55;;
69280;SDS011;56392;51.082;17.080;2024-01-15T10:44:56;6.80;;;1.57;;
69280;SDS011;56392;51.082;17.080;2024-01-15T10:50:20;8.60;;;1.90;;
69280;SDS011;56392;51.082;17.080;2024-01-15T10:55:44;7.47;;;1.52;;
69280;SDS011;56392;51.082;17.080;2024-01-15T11:01:12;7.53;;;2.13;;
69280;SDS011;56392;51.082;17.080;2024-01-15T11:06:44;13.40;;;2.97;;
69280;SDS011;56392;51.082;17.080;2024-01-15T11:12:09;8.32;;;2.10;;
69280;SDS011;56392;51.082;17.080;2024-01-15T11:29:28;7.43;;;1.77;;
69280;SDS011;56392;51.082;17.080;2024-01-15T11:34:55;9.88;;;1.77;;
69280;SDS011;56392;51.082;17.080;2024-01-15T11:40:36;9.53;;;2.13;;
69280;SDS011;56392;51.082;17.080;2024-01-15T11:46:01;11.37;;;2.10;;
69280;SDS011;56392;51.082;17.080;2024-01-15T11:51:25;7.18;;;1.98;;
69280;SDS011;56392;51.082;17.080;2024-01-15T11:56:50;10.70;;;3.30;;
69280;SDS011;56392;51.082;17.080;2024-01-15T12:02:15;9.97;;;2.13;;
69280;SDS011;56392;51.082;17.080;2024-01-15T12:07:38;8.73;;;1.73;;
69280;SDS011;56392;51.082;17.080;2024-01-15T12:13:04;6.80;;;1.70;;
69280;SDS011;56392;51.082;17.080;2024-01-15T12:18:29;6.93;;;1.70;;
69280;SDS011;56392;51.082;17.080;2024-01-15T12:23:55;16.70;;;2.15;;
69280;SDS011;56392;51.082;17.080;2024-01-15T12:29:20;9.40;;;2.25;;
69280;SDS011;56392;51.082;17.080;2024-01-15T12:34:45;16.30;;;2.23;;
69280;SDS011;56392;51.082;17.080;2024-01-15T12:40:09;12.47;;;2.20;;
69280;SDS011;56392;51.082;17.080;2024-01-15T12:45:36;5.60;;;1.50;;
69280;SDS011;56392;51.082;17.080;2024-01-15T12:51:00;9.40;;;2.03;;
69280;SDS011;56392;51.082;17.080;2024-01-15T12:56:28;8.73;;;2.43;;
69280;SDS011;56392;51.082;17.080;2024-01-15T13:01:56;10.25;;;2.00;;
69280;SDS011;56392;51.082;17.080;2024-01-15T13:07:23;9.38;;;2.30;;
69280;SDS011;56392;51.082;17.080;2024-01-15T13:12:47;11.23;;;2.50;;
69280;SDS011;56392;51.082;17.080;2024-01-15T13:18:13;9.25;;;2.20;;
69280;SDS011;56392;51.082;17.080;2024-01-15T13:23:37;8.73;;;1.88;;
69280;SDS011;56392;51.082;17.080;2024-01-15T13:29:00;8.43;;;2.10;;
69280;SDS011;56392;51.082;17.080;2024-01-15T13:34:26;8.85;;;2.10;;
69280;SDS011;56392;51.082;17.080;2024-01-15T13:39:50;8.82;;;2.33;;
69280;SDS011;56392;51.082;17.080;2024-01-15T13:45:15;6.23;;;1.63;;
69280;SDS011;56392;51.082;17.080;2024-01-15T13:50:41;11.83;;;2.20;;
69280;SDS011;56392;51.082;17.080;2024-01-15T13:56:05;10.35;;;2.20;;
69280;SDS011;56392;51.082;17.080;2024-01-15T14:01:28;11.65;;;2.40;;
69280;SDS011;56392;51.082;17.080;2024-01-15T14:06:54;11.73;;;2.90;;
69280;SDS011;56392;51.082;17.080;2024-01-15T14:12:17;12.98;;;3.25;;
69280;SDS011;56392;51.082;17.080;2024-01-15T14:17:41;10.60;;;3.10;;
69280;SDS011;56392;51.082;17.080;2024-01-15T14:23:11;16.27;;;4.77;;
69280;SDS011;56392;51.082;17.080;2024-01-15T14:28:36;13.70;;;4.10;;
69280;SDS011;56392;51.082;17.080;2024-01-15T14:34:00;11.32;;;3.30;;
69280;SDS011;56392;51.082;17.080;2024-01-15T14:39:26;13.83;;;4.07;;
69280;SDS011;56392;51.082;17.080;2024-01-15T14:44:50;15.13;;;4.20;;
69280;SDS011;56392;51.082;17.080;2024-01-15T14:50:16;13.60;;;4.50;;
69280;SDS011;56392;51.082;17.080;2024-01-15T14:55:46;11.53;;;3.50;;
69280;SDS011;56392;51.082;17.080;2024-01-15T15:01:09;11.17;;;3.77;;
69280;SDS011;56392;51.082;17.080;2024-01-15T15:06:32;13.10;;;4.18;;
69280;SDS011;56392;51.082;17.080;2024-01-15T15:11:57;16.07;;;4.27;;
69280;SDS011;56392;51.082;17.080;2024-01-15T15:17:21;11.90;;;3.80;;
69280;SDS011;56392;51.082;17.080;2024-01-15T15:22:45;14.32;;;3.78;;
69280;SDS011;56392;51.082;17.080;2024-01-15T15:28:10;12.90;;;3.67;;
69280;SDS011;56392;51.082;17.080;2024-01-15T15:33:39;10.63;;;3.53;;
69280;SDS011;56392;51.082;17.080;2024-01-15T15:39:03;12.85;;;4.10;;
69280;SDS011;56392;51.082;17.080;2024-01-15T15:44:32;11.40;;;3.87;;
69280;SDS011;56392;51.082;17.080;2024-01-15T15:49:55;12.50;;;4.10;;
69280;SDS011;56392;51.082;17.080;2024-01-15T15:55:20;12.10;;;4.25;;
69280;SDS011;56392;51.082;17.080;2024-01-15T16:00:46;13.17;;;4.60;;
69280;SDS011;56392;51.082;17.080;2024-01-15T16:06:12;12.43;;;3.50;;
69280;SDS011;56392;51.082;17.080;2024-01-15T16:11:35;13.70;;;4.28;;
69280;SDS011;56392;51.082;17.080;2024-01-15T16:17:00;14.73;;;3.60;;
69280;SDS011;56392;51.082;17.080;2024-01-15T16:22:27;11.60;;;4.17;;
69280;SDS011;56392;51.082;17.080;2024-01-15T16:27:54;12.90;;;3.47;;
69280;SDS011;56392;51.082;17.080;2024-01-15T16:33:19;14.00;;;3.33;;
69280;SDS011;56392;51.082;17.080;2024-01-15T16:38:43;12.20;;;3.60;;
69280;SDS011;56392;51.082;17.080;2024-01-15T16:44:06;11.57;;;3.47;;
69280;SDS011;56392;51.082;17.080;2024-01-15T16:49:35;11.33;;;3.37;;
69280;SDS011;56392;51.082;17.080;2024-01-15T16:54:59;10.07;;;3.20;;
69280;SDS011;56392;51.082;17.080;2024-01-15T17:00:23;11.90;;;4.00;;
69280;SDS011;56392;51.082;17.080;2024-01-15T17:05:51;13.63;;;3.23;;
69280;SDS011;56392;51.082;17.080;2024-01-15T17:11:15;13.93;;;3.70;;
69280;SDS011;56392;51.082;17.080;2024-01-15T17:16:39;10.82;;;3.25;;
69280;SDS011;56392;51.082;17.080;2024-01-15T17:22:06;12.17;;;3.30;;
69280;SDS011;56392;51.082;17.080;2024-01-15T17:27:29;11.47;;;3.73;;
69280;SDS011;56392;51.082;17.080;2024-01-15T17:32:54;10.55;;;3.10;;
69280;SDS011;56392;51.082;17.080;2024-01-15T17:38:20;13.33;;;3.60;;
69280;SDS011;56392;51.082;17.080;2024-01-15T17:43:43;10.13;;;3.60;;
69280;SDS011;56392;51.082;17.080;2024-01-15T17:49:07;11.05;;;3.47;;
69280;SDS011;56392;51.082;17.080;2024-01-15T17:54:32;11.23;;;3.30;;
69280;SDS011;56392;51.082;17.080;2024-01-15T17:59:55;10.17;;;3.10;;
69280;SDS011;56392;51.082;17.080;2024-01-15T18:05:19;8.40;;;2.33;;
69280;SDS011;56392;51.082;17.080;2024-01-15T18:10:43;9.80;;;2.97;;
69280;SDS011;56392;51.082;17.080;2024-01-15T18:16:06;7.75;;;1.90;;
69280;SDS011;56392;51.082;17.080;2024-01-15T18:21:32;9.80;;;2.53;;
69280;SDS011;56392;51.082;17.080;2024-01-15T18:26:57;10.50;;;2.57;;
69280;SDS011;56392;51.082;17.080;2024-01-15T18:32:29;7.65;;;2.15;;
69280;SDS011;56392;51.082;17.080;2024-01-15T18:37:53;7.60;;;2.53;;
69280;SDS011;56392;51.082;17.080;2024-01-15T18:43:20;8.37;;;2.60;;
69280;SDS011;56392;51.082;17.080;2024-01-15T18:48:44;7.28;;;2.20;;
69280;SDS011;56392;51.082;17.080;2024-01-15T18:54:07;7.53;;;2.20;;
69280;SDS011;56392;51.082;17.080;2024-01-15T18:59:41;8.80;;;2.37;;
69280;SDS011;56392;51.082;17.080;2024-01-15T19:05:07;9.07;;;2.70;;
69280;SDS011;56392;51.082;17.080;2024-01-15T19:10:33;13.83;;;2.97;;
69280;SDS011;56392;51.082;17.080;2024-01-15T19:16:01;6.00;;;1.83;;
69280;SDS011;56392;51.082;17.080;2024-01-15T19:21:30;8.18;;;2.60;;
69280;SDS011;56392;51.082;17.080;2024-01-15T19:26:54;9.00;;;2.47;;
69280;SDS011;56392;51.082;17.080;2024-01-15T19:32:19;7.67;;;2.20;;
69280;SDS011;56392;51.082;17.080;2024-01-15T19:37:42;9.63;;;2.38;;
69280;SDS011;56392;51.082;17.080;2024-01-15T19:43:07;9.60;;;2.87;;
69280;SDS011;56392;51.082;17.080;2024-01-15T19:48:33;9.77;;;2.50;;
69280;SDS011;56392;51.082;17.080;2024-01-15T19:53:57;7.78;;;2.10;;
69280;SDS011;56392;51.082;17.080;2024-01-15T19:59:20;11.23;;;3.07;;
69280;SDS011;56392;51.082;17.080;2024-01-15T20:04:45;8.40;;;2.63;;
69280;SDS011;56392;51.082;17.080;2024-01-15T20:10:09;8.38;;;2.80;;
69280;SDS011;56392;51.082;17.080;2024-01-15T20:15:32;7.47;;;2.50;;
69280;SDS011;56392;51.082;17.080;2024-01-15T20:20:59;10.10;;;2.90;;
69280;SDS011;56392;51.082;17.080;2024-01-15T20:26:25;10.13;;;2.90;;
69280;SDS011;56392;51.082;17.080;2024-01-15T20:31:48;9.17;;;2.90;;
69280;SDS011;56392;51.082;17.080;2024-01-15T20:37:14;9.05;;;3.08;;
69280;SDS011;56392;51.082;17.080;2024-01-15T20:42:38;8.23;;;2.72;;
69280;SDS011;56392;51.082;17.080;2024-01-15T20:48:02;9.63;;;3.00;;
69280;SDS011;56392;51.082;17.080;2024-01-15T20:53:30;8.63;;;3.00;;
69280;SDS011;56392;51.082;17.080;2024-01-15T20:58:54;10.83;;;3.13;;
69280;SDS011;56392;51.082;17.080;2024-01-15T21:04:17;11.80;;;2.90;;
69280;SDS011;56392;51.082;17.080;2024-01-15T21:09:53;10.25;;;3.53;;
69280;SDS011;56392;51.082;17.080;2024-01-15T21:15:19;10.87;;;3.10;;
69280;SDS011;56392;51.082;17.080;2024-01-15T21:20:42;10.93;;;3.30;;
69280;SDS011;56392;51.082;17.080;2024-01-15T21:26:07;8.93;;;2.90;;
69280;SDS011;56392;51.082;17.080;2024-01-15T21:31:36;12.17;;;3.40;;
69280;SDS011;56392;51.082;17.080;2024-01-15T21:37:00;8.77;;;2.87;;
69280;SDS011;56392;51.082;17.080;2024-01-15T21:42:25;12.30;;;3.30;;
69280;SDS011;56392;51.082;17.080;2024-01-15T21:47:49;11.30;;;3.83;;
69280;SDS011;56392;51.082;17.080;2024-01-15T21:53:12;9.02;;;3.03;;
69280;SDS011;56392;51.082;17.080;2024-01-15T21:58:40;11.73;;;3.08;;
69280;SDS011;56392;51.082;17.080;2024-01-15T22:04:03;9.67;;;3.10;;
69280;SDS011;56392;51.082;17.080;2024-01-15T22:09:29;9.88;;;3.30;;
69280;SDS011;56392;51.082;17.080;2024-01-15T22:14:55;10.80;;;3.27;;
69280;SDS011;56392;51.082;17.080;2024-01-15T22:20:19;13.33;;;3.30;;
69280;SDS011;56392;51.082;17.080;2024-01-15T22:25:44;10.68;;;3.35;;
69280;SDS011;56392;51.082;17.080;2024-01-15T22:31:08;10.10;;;3.10;;
69280;SDS011;56392;51.082;17.080;2024-01-15T22:36:32;11.57;;;3.53;;
69280;SDS011;56392;51.082;17.080;2024-01-15T22:41:55;10.55;;;3.55;;
69280;SDS011;56392;51.082;17.080;2024-01-15T22:47:21;9.63;;;2.97;;
69280;SDS011;56392;51.082;17.080;2024-01-15T22:52:45;9.10;;;3.22;;
69280;SDS011;56392;51.082;17.080;2024-01-15T22:58:10;9.85;;;3.20;;
69280;SDS011;56392;51.082;17.080;2024-01-15T23:03:35;9.17;;;3.10;;
69280;SDS011;56392;51.082;17.080;2024-01-15T23:09:00;9.38;;;3.10;;
69280;SDS011;56392;51.082;17.080;2024-01-15T23:14:23;9.67;;;3.23;;
69280;SDS011;56392;51.082;17.080;2024-01-15T23:19:49;9.35;;;3.15;;
69280;SDS011;56392;51.082;17.080;2024-01-15T23:25:12;11.32;;;3.58;;
69280;SDS011;56392;51.082;17.080;2024-01-15T23:30:39;11.93;;;3.30;;
69280;SDS011;56392;51.082;17.080;2024-01-15T23:36:09;10.77;;;3.53;;
69280;SDS011;56392;51.082;17.080;2024-01-15T23:41:35;11.38;;;3.60;;
69280;SDS011;56392;51.082;17.080;2024-01-15T23:46:59;9.50;;;3.33;;
69280;SDS011;56392;51.082;17.080;2024-01-15T23:52:24;9.63;;;3.47;;
69280;SDS011;56392;51.082;17.080;2024-01-15T23:57:49;10.87;;;3.47;;
